sensor_id;sensor_type;location;lat;lon;timestamp;P1;durP1;ratioP1;P2;durP2;ratioP2
20962;SDS011;10640;50.140;8.138;2022-07-06T00:02:21;3.77;;;2.30;;
20962;SDS011;10640;50.140;8.138;2022-07-06T00:04:52;6.50;;;2.50;;
20962;SDS011;10640;50.140;8.138;2022-07-06T00:07:19;4.03;;;3.00;;
20962;SDS011;10640;50.140;8.138;2022-07-06T00:09:47;5.80;;;2.47;;
20962;SDS011;10640;50.140;8.138;2022-07-06T00:12:14;3.83;;;2.30;;
20962;SDS011;10640;50.140;8.138;2022-07-06T00:14:41;5.27;;;2.50;;
20962;SDS011;10640;50.140;8.138;2022-07-06T00:17:08;2.17;;;2.03;;
20962;SDS011;10640;50.140;8.138;2022-07-06T00:19:35;4.33;;;2.53;;
20962;SDS011;10640;50.140;8.138;2022-07-06T00:22:04;8.93;;;2.53;;
20962;SDS011;10640;50.140;8.138;2022-07-06T00:24:35;4.13;;;2.20;;
20962;SDS011;10640;50.140;8.138;2022-07-06T00:27:02;3.07;;;1.97;;
20962;SDS011;10640;50.140;8.138;2022-07-06T00:29:29;4.33;;;2.10;;
20962;SDS011;10640;50.140;8.138;2022-07-06T00:31:56;4.60;;;2.10;;
20962;SDS011;10640;50.140;8.138;2022-07-06T00:34:23;3.00;;;2.10;;
20962;SDS011;10640;50.140;8.138;2022-07-06T00:36:50;3.40;;;2.00;;
20962;SDS011;10640;50.140;8.138;2022-07-06T00:39:19;5.63;;;2.20;;
20962;SDS011;10640;50.140;8.138;2022-07-06T00:41:46;6.17;;;2.97;;
20962;SDS011;10640;50.140;8.138;2022-07-06T00:44:13;4.90;;;2.33;;
20962;SDS011;10640;50.140;8.138;2022-07-06T00:46:40;2.90;;;2.20;;
20962;SDS011;10640;50.140;8.138;2022-07-06T00:49:07;3.17;;;2.20;;
20962;SDS011;10640;50.140;8.138;2022-07-06T00:51:54;2.43;;;2.07;;
20962;SDS011;10640;50.140;8.138;2022-07-06T00:54:24;2.87;;;2.13;;
20962;SDS011;10640;50.140;8.138;2022-07-06T00:56:52;3.30;;;2.10;;
20962;SDS011;10640;50.140;8.138;2022-07-06T00:59:19;6.17;;;1.90;;
20962;SDS011;10640;50.140;8.138;2022-07-06T01:01:46;2.10;;;1.90;;
20962;SDS011;10640;50.140;8.138;2022-07-06T01:04:13;6.50;;;1.93;;
20962;SDS011;10640;50.140;8.138;2022-07-06T01:06:40;3.70;;;1.90;;
20962;SDS011;10640;50.140;8.138;2022-07-06T01:09:07;4.10;;;1.87;;
20962;SDS011;10640;50.140;8.138;2022-07-06T01:11:35;5.23;;;1.80;;
20962;SDS011;10640;50.140;8.138;2022-07-06T01:14:03;4.60;;;2.00;;
20962;SDS011;10640;50.140;8.138;2022-07-06T01:16:30;3.40;;;1.93;;
20962;SDS011;10640;50.140;8.138;2022-07-06T01:18:57;4.63;;;2.57;;
20962;SDS011;10640;50.140;8.138;2022-07-06T01:21:25;4.50;;;2.10;;
20962;SDS011;10640;50.140;8.138;2022-07-06T01:23:52;2.07;;;1.80;;
20962;SDS011;10640;50.140;8.138;2022-07-06T01:26:20;2.17;;;1.93;;
20962;SDS011;10640;50.140;8.138;2022-07-06T01:28:47;3.07;;;1.80;;
20962;SDS011;10640;50.140;8.138;2022-07-06T01:31:17;2.37;;;1.80;;
20962;SDS011;10640;50.140;8.138;2022-07-06T01:33:45;3.93;;;2.17;;
20962;SDS011;10640;50.140;8.138;2022-07-06T01:36:12;5.80;;;2.00;;
20962;SDS011;10640;50.140;8.138;2022-07-06T01:38:45;4.00;;;2.20;;
20962;SDS011;10640;50.140;8.138;2022-07-06T01:41:12;4.10;;;1.97;;
20962;SDS011;10640;50.140;8.138;2022-07-06T01:43:39;2.53;;;2.03;;
20962;SDS011;10640;50.140;8.138;2022-07-06T01:46:06;7.43;;;2.30;;
20962;SDS011;10640;50.140;8.138;2022-07-06T01:48:33;6.63;;;2.83;;
20962;SDS011;10640;50.140;8.138;2022-07-06T01:51:00;3.53;;;2.23;;
20962;SDS011;10640;50.140;8.138;2022-07-06T01:53:27;6.13;;;2.57;;
20962;SDS011;10640;50.140;8.138;2022-07-06T01:55:55;4.33;;;2.13;;
20962;SDS011;10640;50.140;8.138;2022-07-06T01:58:22;3.40;;;1.93;;
20962;SDS011;10640;50.140;8.138;2022-07-06T02:00:49;3.63;;;2.03;;
20962;SDS011;10640;50.140;8.138;2022-07-06T02:03:16;4.63;;;1.97;;
20962;SDS011;10640;50.140;8.138;2022-07-06T02:05:43;2.10;;;1.70;;
20962;SDS011;10640;50.140;8.138;2022-07-06T02:08:10;2.73;;;2.30;;
20962;SDS011;10640;50.140;8.138;2022-07-06T02:10:37;7.20;;;2.30;;
20962;SDS011;10640;50.140;8.138;2022-07-06T02:13:06;2.40;;;2.20;;
20962;SDS011;10640;50.140;8.138;2022-07-06T02:15:33;4.63;;;2.20;;
20962;SDS011;10640;50.140;8.138;2022-07-06T02:18:00;4.83;;;2.53;;
20962;SDS011;10640;50.140;8.138;2022-07-06T02:20:27;4.70;;;2.40;;
20962;SDS011;10640;50.140;8.138;2022-07-06T02:22:54;2.80;;;2.20;;
20962;SDS011;10640;50.140;8.138;2022-07-06T02:25:21;4.90;;;2.60;;
20962;SDS011;10640;50.140;8.138;2022-07-06T02:27:48;3.67;;;2.20;;
20962;SDS011;10640;50.140;8.138;2022-07-06T02:30:16;3.70;;;2.50;;
20962;SDS011;10640;50.140;8.138;2022-07-06T02:32:43;4.97;;;2.80;;
20962;SDS011;10640;50.140;8.138;2022-07-06T02:35:10;6.40;;;2.80;;
20962;SDS011;10640;50.140;8.138;2022-07-06T02:37:37;4.50;;;2.57;;
20962;SDS011;10640;50.140;8.138;2022-07-06T02:40:05;3.83;;;2.50;;
20962;SDS011;10640;50.140;8.138;2022-07-06T02:42:32;3.07;;;2.50;;
20962;SDS011;10640;50.140;8.138;2022-07-06T02:44:59;3.10;;;2.80;;
20962;SDS011;10640;50.140;8.138;2022-07-06T02:47:28;4.27;;;2.50;;
20962;SDS011;10640;50.140;8.138;2022-07-06T02:49:55;8.43;;;2.73;;
20962;SDS011;10640;50.140;8.138;2022-07-06T03:56:00;3.63;;;3.20;;
20962;SDS011;10640;50.140;8.138;2022-07-06T03:58:44;4.40;;;3.00;;
20962;SDS011;10640;50.140;8.138;2022-07-06T04:01:11;6.27;;;2.90;;
20962;SDS011;10640;50.140;8.138;2022-07-06T04:03:39;5.50;;;2.87;;
20962;SDS011;10640;50.140;8.138;2022-07-06T04:06:06;6.03;;;3.20;;
20962;SDS011;10640;50.140;8.138;2022-07-06T04:08:33;5.70;;;3.23;;
20962;SDS011;10640;50.140;8.138;2022-07-06T04:11:01;5.63;;;3.23;;
20962;SDS011;10640;50.140;8.138;2022-07-06T04:13:28;5.73;;;3.13;;
20962;SDS011;10640;50.140;8.138;2022-07-06T04:15:56;9.83;;;3.60;;
20962;SDS011;10640;50.140;8.138;2022-07-06T04:18:22;4.67;;;3.30;;
20962;SDS011;10640;50.140;8.138;2022-07-06T04:20:49;6.77;;;3.30;;
20962;SDS011;10640;50.140;8.138;2022-07-06T04:23:17;6.23;;;3.43;;
20962;SDS011;10640;50.140;8.138;2022-07-06T04:25:44;6.67;;;3.33;;
20962;SDS011;10640;50.140;8.138;2022-07-06T04:28:12;7.97;;;3.27;;
20962;SDS011;10640;50.140;8.138;2022-07-06T04:30:39;6.83;;;3.20;;
20962;SDS011;10640;50.140;8.138;2022-07-06T04:33:07;8.60;;;3.40;;
20962;SDS011;10640;50.140;8.138;2022-07-06T04:35:35;8.30;;;3.40;;
20962;SDS011;10640;50.140;8.138;2022-07-06T04:38:02;4.63;;;3.23;;
20962;SDS011;10640;50.140;8.138;2022-07-06T04:40:29;5.13;;;3.10;;
20962;SDS011;10640;50.140;8.138;2022-07-06T04:42:57;5.07;;;3.30;;
20962;SDS011;10640;50.140;8.138;2022-07-06T04:45:25;8.33;;;3.30;;
20962;SDS011;10640;50.140;8.138;2022-07-06T04:47:52;6.60;;;3.43;;
20962;SDS011;10640;50.140;8.138;2022-07-06T04:50:19;7.60;;;3.13;;
20962;SDS011;10640;50.140;8.138;2022-07-06T04:52:46;6.80;;;3.50;;
20962;SDS011;10640;50.140;8.138;2022-07-06T04:55:13;9.30;;;3.50;;
20962;SDS011;10640;50.140;8.138;2022-07-06T04:57:40;6.03;;;3.67;;
20962;SDS011;10640;50.140;8.138;2022-07-06T05:00:08;10.53;;;3.43;;
20962;SDS011;10640;50.140;8.138;2022-07-06T05:02:37;3.57;;;3.17;;
20962;SDS011;10640;50.140;8.138;2022-07-06T05:05:04;5.87;;;3.27;;
20962;SDS011;10640;50.140;8.138;2022-07-06T05:07:31;5.70;;;3.67;;
20962;SDS011;10640;50.140;8.138;2022-07-06T05:09:59;9.40;;;3.83;;
20962;SDS011;10640;50.140;8.138;2022-07-06T05:12:26;8.40;;;3.50;;
20962;SDS011;10640;50.140;8.138;2022-07-06T05:14:53;6.73;;;3.70;;
20962;SDS011;10640;50.140;8.138;2022-07-06T05:17:20;6.83;;;3.87;;
20962;SDS011;10640;50.140;8.138;2022-07-06T05:19:48;5.47;;;3.40;;
20962;SDS011;10640;50.140;8.138;2022-07-06T05:22:17;6.20;;;3.10;;
20962;SDS011;10640;50.140;8.138;2022-07-06T05:24:44;7.97;;;3.70;;
20962;SDS011;10640;50.140;8.138;2022-07-06T05:27:11;7.23;;;2.93;;
20962;SDS011;10640;50.140;8.138;2022-07-06T05:29:38;8.00;;;3.00;;
20962;SDS011;10640;50.140;8.138;2022-07-06T05:32:06;5.60;;;3.20;;
20962;SDS011;10640;50.140;8.138;2022-07-06T05:34:33;9.63;;;3.57;;
20962;SDS011;10640;50.140;8.138;2022-07-06T05:37:03;6.20;;;2.77;;
20962;SDS011;10640;50.140;8.138;2022-07-06T05:39:30;8.27;;;3.73;;
20962;SDS011;10640;50.140;8.138;2022-07-06T05:41:58;9.17;;;4.17;;
20962;SDS011;10640;50.140;8.138;2022-07-06T05:44:24;4.80;;;2.90;;
20962;SDS011;10640;50.140;8.138;2022-07-06T05:46:51;5.30;;;2.90;;
20962;SDS011;10640;50.140;8.138;2022-07-06T05:49:39;8.07;;;2.60;;
20962;SDS011;10640;50.140;8.138;2022-07-06T05:52:24;4.90;;;2.93;;
20962;SDS011;10640;50.140;8.138;2022-07-06T05:54:51;15.07;;;5.30;;
20962;SDS011;10640;50.140;8.138;2022-07-06T05:57:18;5.53;;;2.70;;
20962;SDS011;10640;50.140;8.138;2022-07-06T05:59:45;5.33;;;2.50;;
20962;SDS011;10640;50.140;8.138;2022-07-06T06:02:12;4.23;;;2.40;;
20962;SDS011;10640;50.140;8.138;2022-07-06T06:04:40;4.67;;;2.70;;
20962;SDS011;10640;50.140;8.138;2022-07-06T06:07:07;5.33;;;2.60;;
20962;SDS011;10640;50.140;8.138;2022-07-06T06:09:35;4.97;;;2.80;;
20962;SDS011;10640;50.140;8.138;2022-07-06T06:12:03;7.47;;;2.90;;
20962;SDS011;10640;50.140;8.138;2022-07-06T06:14:30;5.60;;;3.10;;
20962;SDS011;10640;50.140;8.138;2022-07-06T06:16:57;6.60;;;2.57;;
20962;SDS011;10640;50.140;8.138;2022-07-06T06:19:24;5.13;;;2.87;;
20962;SDS011;10640;50.140;8.138;2022-07-06T06:21:51;5.40;;;3.03;;
20962;SDS011;10640;50.140;8.138;2022-07-06T06:24:18;3.90;;;3.07;;
20962;SDS011;10640;50.140;8.138;2022-07-06T06:26:47;9.23;;;4.00;;
20962;SDS011;10640;50.140;8.138;2022-07-06T06:29:14;4.27;;;2.63;;
20962;SDS011;10640;50.140;8.138;2022-07-06T06:31:41;3.47;;;2.20;;
20962;SDS011;10640;50.140;8.138;2022-07-06T06:34:08;6.30;;;2.97;;
20962;SDS011;10640;50.140;8.138;2022-07-06T06:36:36;4.23;;;2.47;;
20962;SDS011;10640;50.140;8.138;2022-07-06T06:39:03;6.13;;;2.77;;
20962;SDS011;10640;50.140;8.138;2022-07-06T06:41:30;4.87;;;3.17;;
20962;SDS011;10640;50.140;8.138;2022-07-06T06:43:58;4.03;;;2.97;;
20962;SDS011;10640;50.140;8.138;2022-07-06T06:46:25;4.83;;;3.10;;
20962;SDS011;10640;50.140;8.138;2022-07-06T06:48:53;5.67;;;3.37;;
20962;SDS011;10640;50.140;8.138;2022-07-06T06:51:20;4.20;;;2.93;;
20962;SDS011;10640;50.140;8.138;2022-07-06T06:53:47;10.80;;;3.20;;
20962;SDS011;10640;50.140;8.138;2022-07-06T06:56:14;8.27;;;3.37;;
20962;SDS011;10640;50.140;8.138;2022-07-06T06:58:42;4.97;;;3.00;;
20962;SDS011;10640;50.140;8.138;2022-07-06T07:01:10;6.00;;;2.67;;
20962;SDS011;10640;50.140;8.138;2022-07-06T07:03:37;3.60;;;2.70;;
20962;SDS011;10640;50.140;8.138;2022-07-06T07:06:04;4.13;;;2.50;;
20962;SDS011;10640;50.140;8.138;2022-07-06T07:08:32;3.53;;;2.47;;
20962;SDS011;10640;50.140;8.138;2022-07-06T07:10:59;5.10;;;2.03;;
20962;SDS011;10640;50.140;8.138;2022-07-06T07:13:26;4.63;;;1.90;;
20962;SDS011;10640;50.140;8.138;2022-07-06T07:15:53;3.57;;;2.30;;
20962;SDS011;10640;50.140;8.138;2022-07-06T07:18:22;8.40;;;3.57;;
20962;SDS011;10640;50.140;8.138;2022-07-06T07:20:50;4.10;;;2.50;;
20962;SDS011;10640;50.140;8.138;2022-07-06T07:23:17;5.90;;;2.50;;
20962;SDS011;10640;50.140;8.138;2022-07-06T07:25:45;5.00;;;2.07;;
20962;SDS011;10640;50.140;8.138;2022-07-06T07:28:12;6.37;;;2.27;;
20962;SDS011;10640;50.140;8.138;2022-07-06T07:30:39;3.37;;;2.10;;
20962;SDS011;10640;50.140;8.138;2022-07-06T07:33:06;3.37;;;2.07;;
20962;SDS011;10640;50.140;8.138;2022-07-06T07:35:34;3.37;;;2.53;;
20962;SDS011;10640;50.140;8.138;2022-07-06T07:38:01;5.17;;;2.30;;
20962;SDS011;10640;50.140;8.138;2022-07-06T07:40:29;7.13;;;2.67;;
20962;SDS011;10640;50.140;8.138;2022-07-06T07:42:56;2.93;;;2.30;;
20962;SDS011;10640;50.140;8.138;2022-07-06T07:45:23;2.87;;;2.17;;
20962;SDS011;10640;50.140;8.138;2022-07-06T07:47:50;7.17;;;2.20;;
20962;SDS011;10640;50.140;8.138;2022-07-06T07:50:17;5.40;;;2.13;;
20962;SDS011;10640;50.140;8.138;2022-07-06T07:52:45;4.07;;;1.70;;
20962;SDS011;10640;50.140;8.138;2022-07-06T07:55:12;2.53;;;1.60;;
20962;SDS011;10640;50.140;8.138;2022-07-06T07:57:40;3.47;;;1.73;;
20962;SDS011;10640;50.140;8.138;2022-07-06T08:00:10;1.63;;;1.53;;
20962;SDS011;10640;50.140;8.138;2022-07-06T08:02:38;4.83;;;1.70;;
20962;SDS011;10640;50.140;8.138;2022-07-06T08:05:05;4.27;;;1.97;;
20962;SDS011;10640;50.140;8.138;2022-07-06T08:07:33;4.07;;;1.73;;
20962;SDS011;10640;50.140;8.138;2022-07-06T08:10:01;3.43;;;1.33;;
20962;SDS011;10640;50.140;8.138;2022-07-06T08:12:28;5.30;;;2.00;;
20962;SDS011;10640;50.140;8.138;2022-07-06T08:14:56;4.00;;;1.70;;
20962;SDS011;10640;50.140;8.138;2022-07-06T08:17:23;2.50;;;1.50;;
20962;SDS011;10640;50.140;8.138;2022-07-06T08:19:51;3.53;;;1.43;;
20962;SDS011;10640;50.140;8.138;2022-07-06T08:22:18;3.47;;;1.43;;
20962;SDS011;10640;50.140;8.138;2022-07-06T08:24:45;3.57;;;1.70;;
20962;SDS011;10640;50.140;8.138;2022-07-06T08:27:13;5.47;;;1.60;;
20962;SDS011;10640;50.140;8.138;2022-07-06T08:29:40;3.43;;;1.47;;
20962;SDS011;10640;50.140;8.138;2022-07-06T08:32:07;4.60;;;2.00;;
20962;SDS011;10640;50.140;8.138;2022-07-06T08:34:34;3.07;;;2.60;;
20962;SDS011;10640;50.140;8.138;2022-07-06T08:37:01;3.87;;;2.37;;
20962;SDS011;10640;50.140;8.138;2022-07-06T08:39:28;5.23;;;2.57;;
20962;SDS011;10640;50.140;8.138;2022-07-06T08:41:55;3.40;;;3.10;;
20962;SDS011;10640;50.140;8.138;2022-07-06T08:44:25;5.63;;;2.97;;
20962;SDS011;10640;50.140;8.138;2022-07-06T08:46:52;4.70;;;2.83;;
20962;SDS011;10640;50.140;8.138;2022-07-06T08:49:23;2.97;;;2.67;;
20962;SDS011;10640;50.140;8.138;2022-07-06T08:51:52;6.13;;;2.70;;
20962;SDS011;10640;50.140;8.138;2022-07-06T08:54:19;6.80;;;3.00;;
20962;SDS011;10640;50.140;8.138;2022-07-06T08:56:48;6.33;;;3.10;;
20962;SDS011;10640;50.140;8.138;2022-07-06T08:59:16;5.67;;;3.30;;
20962;SDS011;10640;50.140;8.138;2022-07-06T09:01:45;4.73;;;3.10;;
20962;SDS011;10640;50.140;8.138;2022-07-06T09:04:12;6.33;;;3.10;;
20962;SDS011;10640;50.140;8.138;2022-07-06T09:06:42;4.63;;;2.80;;
20962;SDS011;10640;50.140;8.138;2022-07-06T09:09:11;3.10;;;2.90;;
20962;SDS011;10640;50.140;8.138;2022-07-06T09:11:45;5.87;;;3.20;;
20962;SDS011;10640;50.140;8.138;2022-07-06T09:14:12;3.10;;;2.77;;
20962;SDS011;10640;50.140;8.138;2022-07-06T09:16:39;6.13;;;3.20;;
20962;SDS011;10640;50.140;8.138;2022-07-06T09:19:08;5.73;;;2.30;;
20962;SDS011;10640;50.140;8.138;2022-07-06T09:21:37;2.60;;;2.40;;
20962;SDS011;10640;50.140;8.138;2022-07-06T09:24:05;3.23;;;2.50;;
20962;SDS011;10640;50.140;8.138;2022-07-06T09:26:35;5.60;;;2.60;;
20962;SDS011;10640;50.140;8.138;2022-07-06T09:29:03;2.77;;;2.27;;
20962;SDS011;10640;50.140;8.138;2022-07-06T09:31:31;5.00;;;2.50;;
20962;SDS011;10640;50.140;8.138;2022-07-06T09:33:58;5.17;;;2.40;;
20962;SDS011;10640;50.140;8.138;2022-07-06T09:36:38;3.97;;;1.90;;
20962;SDS011;10640;50.140;8.138;2022-07-06T09:39:22;3.70;;;1.93;;
20962;SDS011;10640;50.140;8.138;2022-07-06T09:41:52;4.43;;;2.00;;
20962;SDS011;10640;50.140;8.138;2022-07-06T09:44:23;3.03;;;2.23;;
20962;SDS011;10640;50.140;8.138;2022-07-06T09:46:52;1.73;;;1.60;;
20962;SDS011;10640;50.140;8.138;2022-07-06T09:49:21;2.70;;;2.10;;
20962;SDS011;10640;50.140;8.138;2022-07-06T09:51:50;3.00;;;1.77;;
20962;SDS011;10640;50.140;8.138;2022-07-06T09:54:19;2.57;;;1.77;;
20962;SDS011;10640;50.140;8.138;2022-07-06T09:56:46;3.73;;;2.13;;
20962;SDS011;10640;50.140;8.138;2022-07-06T09:59:16;3.27;;;1.90;;
20962;SDS011;10640;50.140;8.138;2022-07-06T10:01:46;5.63;;;2.77;;
20962;SDS011;10640;50.140;8.138;2022-07-06T10:04:13;1.87;;;1.60;;
20962;SDS011;10640;50.140;8.138;2022-07-06T10:06:43;4.20;;;1.63;;
20962;SDS011;10640;50.140;8.138;2022-07-06T10:09:13;4.83;;;1.70;;
20962;SDS011;10640;50.140;8.138;2022-07-06T10:11:42;2.83;;;1.70;;
20962;SDS011;10640;50.140;8.138;2022-07-06T10:14:11;4.87;;;1.50;;
20962;SDS011;10640;50.140;8.138;2022-07-06T10:16:41;1.97;;;1.60;;
20962;SDS011;10640;50.140;8.138;2022-07-06T10:19:08;2.17;;;1.30;;
20962;SDS011;10640;50.140;8.138;2022-07-06T10:21:36;2.63;;;1.90;;
20962;SDS011;10640;50.140;8.138;2022-07-06T10:24:05;3.40;;;1.93;;
20962;SDS011;10640;50.140;8.138;2022-07-06T10:26:35;2.10;;;1.90;;
20962;SDS011;10640;50.140;8.138;2022-07-06T10:29:02;3.53;;;1.87;;
20962;SDS011;10640;50.140;8.138;2022-07-06T10:31:30;1.53;;;1.33;;
20962;SDS011;10640;50.140;8.138;2022-07-06T10:33:59;3.07;;;1.50;;
20962;SDS011;10640;50.140;8.138;2022-07-06T10:36:27;5.67;;;1.40;;
20962;SDS011;10640;50.140;8.138;2022-07-06T10:38:55;5.97;;;2.10;;
20962;SDS011;10640;50.140;8.138;2022-07-06T10:41:44;1.40;;;1.30;;
20962;SDS011;10640;50.140;8.138;2022-07-06T10:44:17;1.93;;;1.43;;
20962;SDS011;10640;50.140;8.138;2022-07-06T10:46:51;3.77;;;1.40;;
20962;SDS011;10640;50.140;8.138;2022-07-06T10:49:20;3.17;;;1.30;;
20962;SDS011;10640;50.140;8.138;2022-07-06T10:51:47;2.87;;;1.37;;
20962;SDS011;10640;50.140;8.138;2022-07-06T10:54:15;5.43;;;2.13;;
20962;SDS011;10640;50.140;8.138;2022-07-06T10:56:45;7.80;;;3.30;;
20962;SDS011;10640;50.140;8.138;2022-07-06T10:59:13;3.37;;;1.70;;
20962;SDS011;10640;50.140;8.138;2022-07-06T11:02:10;2.80;;;1.50;;
20962;SDS011;10640;50.140;8.138;2022-07-06T11:04:38;5.00;;;1.60;;
20962;SDS011;10640;50.140;8.138;2022-07-06T11:07:06;2.17;;;1.40;;
20962;SDS011;10640;50.140;8.138;2022-07-06T11:09:35;2.40;;;1.70;;
20962;SDS011;10640;50.140;8.138;2022-07-06T11:12:13;3.63;;;1.70;;
20962;SDS011;10640;50.140;8.138;2022-07-06T11:14:43;4.30;;;1.53;;
20962;SDS011;10640;50.140;8.138;2022-07-06T11:17:11;1.77;;;1.40;;
20962;SDS011;10640;50.140;8.138;2022-07-06T11:19:47;2.43;;;1.53;;
20962;SDS011;10640;50.140;8.138;2022-07-06T11:22:15;1.93;;;1.20;;
20962;SDS011;10640;50.140;8.138;2022-07-06T11:24:43;8.70;;;1.70;;
20962;SDS011;10640;50.140;8.138;2022-07-06T11:27:12;2.73;;;1.23;;
20962;SDS011;10640;50.140;8.138;2022-07-06T11:29:40;3.63;;;1.30;;
20962;SDS011;10640;50.140;8.138;2022-07-06T11:32:11;5.00;;;1.60;;
20962;SDS011;10640;50.140;8.138;2022-07-06T11:34:40;6.23;;;1.83;;
20962;SDS011;10640;50.140;8.138;2022-07-06T11:37:09;4.67;;;1.60;;
20962;SDS011;10640;50.140;8.138;2022-07-06T11:39:38;2.13;;;1.50;;
20962;SDS011;10640;50.140;8.138;2022-07-06T11:42:06;3.20;;;1.60;;
20962;SDS011;10640;50.140;8.138;2022-07-06T11:44:36;3.93;;;1.80;;
20962;SDS011;10640;50.140;8.138;2022-07-06T11:47:04;4.70;;;1.87;;
20962;SDS011;10640;50.140;8.138;2022-07-06T11:49:34;2.00;;;1.27;;
20962;SDS011;10640;50.140;8.138;2022-07-06T11:52:04;1.60;;;1.40;;
20962;SDS011;10640;50.140;8.138;2022-07-06T11:54:32;2.10;;;1.53;;
20962;SDS011;10640;50.140;8.138;2022-07-06T11:56:59;2.70;;;1.40;;
20962;SDS011;10640;50.140;8.138;2022-07-06T11:59:29;2.93;;;1.30;;
20962;SDS011;10640;50.140;8.138;2022-07-06T12:01:59;3.97;;;1.33;;
20962;SDS011;10640;50.140;8.138;2022-07-06T12:04:26;3.53;;;1.27;;
20962;SDS011;10640;50.140;8.138;2022-07-06T12:06:53;3.23;;;1.50;;
20962;SDS011;10640;50.140;8.138;2022-07-06T12:09:21;4.83;;;1.67;;
20962;SDS011;10640;50.140;8.138;2022-07-06T12:11:48;3.40;;;1.50;;
20962;SDS011;10640;50.140;8.138;2022-07-06T12:14:15;5.50;;;1.80;;
20962;SDS011;10640;50.140;8.138;2022-07-06T12:16:44;1.47;;;1.37;;
20962;SDS011;10640;50.140;8.138;2022-07-06T12:19:13;1.77;;;1.40;;
20962;SDS011;10640;50.140;8.138;2022-07-06T12:21:44;2.43;;;1.40;;
20962;SDS011;10640;50.140;8.138;2022-07-06T12:24:17;10.43;;;2.40;;
20962;SDS011;10640;50.140;8.138;2022-07-06T12:26:45;1.30;;;1.30;;
20962;SDS011;10640;50.140;8.138;2022-07-06T12:29:12;2.37;;;1.83;;
20962;SDS011;10640;50.140;8.138;2022-07-06T12:31:40;4.73;;;1.40;;
20962;SDS011;10640;50.140;8.138;2022-07-06T12:34:13;2.20;;;1.33;;
20962;SDS011;10640;50.140;8.138;2022-07-06T12:36:42;1.50;;;1.30;;
20962;SDS011;10640;50.140;8.138;2022-07-06T12:39:10;1.83;;;1.63;;
20962;SDS011;10640;50.140;8.138;2022-07-06T12:41:41;5.67;;;1.40;;
20962;SDS011;10640;50.140;8.138;2022-07-06T12:44:13;1.83;;;1.30;;
20962;SDS011;10640;50.140;8.138;2022-07-06T12:46:42;5.77;;;1.30;;
20962;SDS011;10640;50.140;8.138;2022-07-06T12:49:15;2.50;;;1.40;;
20962;SDS011;10640;50.140;8.138;2022-07-06T12:51:47;7.20;;;1.40;;
20962;SDS011;10640;50.140;8.138;2022-07-06T12:54:16;1.27;;;1.17;;
20962;SDS011;10640;50.140;8.138;2022-07-06T12:57:05;4.43;;;1.30;;
20962;SDS011;10640;50.140;8.138;2022-07-06T12:59:38;2.50;;;1.20;;
20962;SDS011;10640;50.140;8.138;2022-07-06T13:02:16;2.83;;;1.40;;
20962;SDS011;10640;50.140;8.138;2022-07-06T13:04:55;3.03;;;1.47;;
20962;SDS011;10640;50.140;8.138;2022-07-06T13:07:23;4.57;;;1.37;;
20962;SDS011;10640;50.140;8.138;2022-07-06T13:09:51;2.03;;;1.40;;
20962;SDS011;10640;50.140;8.138;2022-07-06T13:12:18;4.03;;;1.50;;
20962;SDS011;10640;50.140;8.138;2022-07-06T13:14:45;5.20;;;1.30;;
20962;SDS011;10640;50.140;8.138;2022-07-06T13:17:12;2.07;;;1.17;;
20962;SDS011;10640;50.140;8.138;2022-07-06T13:19:39;4.37;;;1.50;;
20962;SDS011;10640;50.140;8.138;2022-07-06T13:22:08;4.90;;;1.40;;
20962;SDS011;10640;50.140;8.138;2022-07-06T13:24:35;2.40;;;1.30;;
20962;SDS011;10640;50.140;8.138;2022-07-06T13:27:03;3.23;;;1.90;;
20962;SDS011;10640;50.140;8.138;2022-07-06T13:29:31;3.07;;;1.50;;
20962;SDS011;10640;50.140;8.138;2022-07-06T13:31:58;3.87;;;1.50;;
20962;SDS011;10640;50.140;8.138;2022-07-06T13:34:25;3.83;;;1.67;;
20962;SDS011;10640;50.140;8.138;2022-07-06T13:36:52;4.13;;;1.40;;
20962;SDS011;10640;50.140;8.138;2022-07-06T13:39:20;2.47;;;1.50;;
20962;SDS011;10640;50.140;8.138;2022-07-06T13:41:48;4.23;;;1.57;;
20962;SDS011;10640;50.140;8.138;2022-07-06T13:44:15;6.00;;;1.60;;
20962;SDS011;10640;50.140;8.138;2022-07-06T13:46:42;2.90;;;1.70;;
20962;SDS011;10640;50.140;8.138;2022-07-06T13:49:10;1.87;;;1.30;;
20962;SDS011;10640;50.140;8.138;2022-07-06T13:51:37;3.23;;;2.20;;
20962;SDS011;10640;50.140;8.138;2022-07-06T13:54:05;4.33;;;1.60;;
20962;SDS011;10640;50.140;8.138;2022-07-06T13:56:33;3.03;;;1.70;;
20962;SDS011;10640;50.140;8.138;2022-07-06T13:59:01;4.20;;;1.70;;
20962;SDS011;10640;50.140;8.138;2022-07-06T14:01:28;3.73;;;1.50;;
20962;SDS011;10640;50.140;8.138;2022-07-06T14:03:55;3.13;;;1.90;;
20962;SDS011;10640;50.140;8.138;2022-07-06T14:06:21;3.83;;;1.83;;
20962;SDS011;10640;50.140;8.138;2022-07-06T14:08:48;5.57;;;2.37;;
20962;SDS011;10640;50.140;8.138;2022-07-06T14:11:16;6.13;;;2.27;;
20962;SDS011;10640;50.140;8.138;2022-07-06T14:13:45;3.20;;;2.20;;
20962;SDS011;10640;50.140;8.138;2022-07-06T14:16:12;2.60;;;2.40;;
20962;SDS011;10640;50.140;8.138;2022-07-06T14:18:39;2.63;;;2.20;;
20962;SDS011;10640;50.140;8.138;2022-07-06T14:21:05;3.90;;;2.50;;
20962;SDS011;10640;50.140;8.138;2022-07-06T14:23:34;4.60;;;2.67;;
20962;SDS011;10640;50.140;8.138;2022-07-06T14:26:00;3.00;;;2.70;;
20962;SDS011;10640;50.140;8.138;2022-07-06T14:28:27;3.60;;;2.53;;
20962;SDS011;10640;50.140;8.138;2022-07-06T14:30:56;3.87;;;2.93;;
20962;SDS011;10640;50.140;8.138;2022-07-06T14:33:26;3.50;;;2.93;;
20962;SDS011;10640;50.140;8.138;2022-07-06T14:35:53;5.00;;;3.70;;
20962;SDS011;10640;50.140;8.138;2022-07-06T14:38:21;2.50;;;2.10;;
20962;SDS011;10640;50.140;8.138;2022-07-06T14:40:49;2.37;;;2.17;;
20962;SDS011;10640;50.140;8.138;2022-07-06T14:43:16;5.77;;;2.40;;
20962;SDS011;10640;50.140;8.138;2022-07-06T14:45:44;2.03;;;1.90;;
20962;SDS011;10640;50.140;8.138;2022-07-06T14:48:13;2.47;;;2.03;;
20962;SDS011;10640;50.140;8.138;2022-07-06T14:50:42;5.07;;;1.90;;
20962;SDS011;10640;50.140;8.138;2022-07-06T14:53:10;2.03;;;1.70;;
20962;SDS011;10640;50.140;8.138;2022-07-06T14:55:37;3.23;;;1.83;;
20962;SDS011;10640;50.140;8.138;2022-07-06T14:58:04;5.67;;;2.10;;
20962;SDS011;10640;50.140;8.138;2022-07-06T15:00:31;6.23;;;2.30;;
20962;SDS011;10640;50.140;8.138;2022-07-06T15:02:58;2.77;;;2.10;;
20962;SDS011;10640;50.140;8.138;2022-07-06T15:05:26;4.10;;;2.73;;
20962;SDS011;10640;50.140;8.138;2022-07-06T15:07:53;3.30;;;2.90;;
20962;SDS011;10640;50.140;8.138;2022-07-06T15:10:20;4.10;;;2.60;;
20962;SDS011;10640;50.140;8.138;2022-07-06T15:12:47;6.70;;;2.57;;
20962;SDS011;10640;50.140;8.138;2022-07-06T15:15:14;3.37;;;2.67;;
20962;SDS011;10640;50.140;8.138;2022-07-06T15:17:41;4.80;;;2.80;;
20962;SDS011;10640;50.140;8.138;2022-07-06T15:20:08;6.40;;;3.20;;
20962;SDS011;10640;50.140;8.138;2022-07-06T15:22:38;5.80;;;2.70;;
20962;SDS011;10640;50.140;8.138;2022-07-06T15:25:06;7.00;;;3.60;;
20962;SDS011;10640;50.140;8.138;2022-07-06T15:27:34;3.67;;;2.90;;
20962;SDS011;10640;50.140;8.138;2022-07-06T15:30:01;4.63;;;2.67;;
20962;SDS011;10640;50.140;8.138;2022-07-06T15:32:28;3.33;;;2.93;;
20962;SDS011;10640;50.140;8.138;2022-07-06T15:34:55;9.77;;;3.53;;
20962;SDS011;10640;50.140;8.138;2022-07-06T15:37:23;6.00;;;3.90;;
20962;SDS011;10640;50.140;8.138;2022-07-06T15:39:51;5.10;;;3.43;;
20962;SDS011;10640;50.140;8.138;2022-07-06T15:42:18;3.87;;;3.33;;
20962;SDS011;10640;50.140;8.138;2022-07-06T15:44:45;4.13;;;3.23;;
20962;SDS011;10640;50.140;8.138;2022-07-06T15:47:13;3.60;;;3.00;;
20962;SDS011;10640;50.140;8.138;2022-07-06T15:49:40;5.77;;;3.40;;
20962;SDS011;10640;50.140;8.138;2022-07-06T15:52:07;3.43;;;3.10;;
20962;SDS011;10640;50.140;8.138;2022-07-06T15:54:34;5.97;;;3.23;;
20962;SDS011;10640;50.140;8.138;2022-07-06T15:57:03;5.50;;;3.20;;
20962;SDS011;10640;50.140;8.138;2022-07-06T15:59:31;5.20;;;3.53;;